createdAt,value
2022-12-08T00:01:09.777Z,20.13
2022-12-08T00:03:36.910Z,19.55
2022-12-08T00:06:23.999Z,19.92
2022-12-08T00:09:09.276Z,18.85
2022-12-08T00:11:37.788Z,20.48
2022-12-08T00:14:04.388Z,20.38
2022-12-08T00:16:30.851Z,19.92
2022-12-08T00:18:57.248Z,20.77
2022-12-08T00:21:23.625Z,18.67
2022-12-08T00:23:50.040Z,20.75
2022-12-08T00:26:20.321Z,20.73
2022-12-08T00:28:47.480Z,18.70
2022-12-08T00:31:13.839Z,20.02
2022-12-08T00:33:40.289Z,20.05
2022-12-08T00:36:12.734Z,21.05
2022-12-08T00:38:39.788Z,19.70
2022-12-08T00:41:14.279Z,20.15
2022-12-08T00:43:40.723Z,20.17
2022-12-08T00:46:07.271Z,19.58
2022-12-08T00:48:33.720Z,20.45
2022-12-08T00:51:00.225Z,19.80
2022-12-08T00:53:26.589Z,20.55
2022-12-08T00:55:53.071Z,20.20
2022-12-08T00:58:19.450Z,21.42
2022-12-08T01:00:45.947Z,21.25
2022-12-08T01:03:12.788Z,20.25
2022-12-08T01:05:39.512Z,20.08
2022-12-08T01:08:07.656Z,21.70
2022-12-08T01:10:37.993Z,22.23
2022-12-08T01:13:04.562Z,21.13
2022-12-08T01:15:30.975Z,20.27
2022-12-08T01:17:57.476Z,19.67
2022-12-08T01:20:23.880Z,19.35
2022-12-08T01:22:50.243Z,19.45
2022-12-08T01:25:16.673Z,19.67
2022-12-08T01:27:43.102Z,20.65
2022-12-08T01:30:10.182Z,19.90
2022-12-08T01:32:36.860Z,19.67
2022-12-08T01:35:03.860Z,20.25
2022-12-08T01:37:30.430Z,19.80
2022-12-08T01:40:03.743Z,20.85
2022-12-08T01:42:32.383Z,19.48
2022-12-08T01:45:02.862Z,20.77
2022-12-08T01:47:37.544Z,19.45
2022-12-08T01:50:08.683Z,19.58
2022-12-08T01:52:46.978Z,20.15
2022-12-08T01:55:19.691Z,20.63
2022-12-08T01:58:00.672Z,19.30
2022-12-08T02:03:04.603Z,19.13
2022-12-08T02:05:36.108Z,19.15
2022-12-08T02:08:07.022Z,19.48
2022-12-08T02:13:04.570Z,17.92
2022-12-08T02:15:49.204Z,21.52
2022-12-08T02:18:27.002Z,19.27
2022-12-08T02:21:03.802Z,20.45
2022-12-08T02:23:49.158Z,18.42
2022-12-08T02:26:24.796Z,19.92
2022-12-08T02:29:02.175Z,20.35
2022-12-08T02:31:52.426Z,20.23
2022-12-08T02:34:48.372Z,18.20
2022-12-08T02:37:38.383Z,19.60
2022-12-08T02:40:33.886Z,20.75
2022-12-08T02:43:17.498Z,18.55
2022-12-08T02:45:50.320Z,18.65
2022-12-08T02:48:17.113Z,19.40
2022-12-08T02:50:43.878Z,19.60
2022-12-08T02:56:02.937Z,21.73
2022-12-08T02:58:57.365Z,19.73
2022-12-08T03:01:54.012Z,18.48
2022-12-08T03:04:35.017Z,19.25
2022-12-08T03:07:13.809Z,18.67
2022-12-08T03:09:48.791Z,18.95
2022-12-08T03:12:26.394Z,20.67
2022-12-08T03:14:55.282Z,18.92
2022-12-08T03:17:26.191Z,18.05
2022-12-08T03:22:27.967Z,18.90
2022-12-08T03:24:56.438Z,19.65
2022-12-08T03:27:30.534Z,19.73
2022-12-08T03:29:59.018Z,19.65
2022-12-08T03:33:03.116Z,18.83
2022-12-08T03:35:33.069Z,18.73
2022-12-08T03:38:12.458Z,18.75
2022-12-08T03:40:39.769Z,18.90
2022-12-08T03:43:07.492Z,19.40
2022-12-08T03:45:34.526Z,18.10
2022-12-08T03:48:01.212Z,18.08
2022-12-08T03:50:27.820Z,18.02
2022-12-08T03:52:54.357Z,18.58
2022-12-08T03:55:21.554Z,18.05
2022-12-08T03:57:48.233Z,19.35
2022-12-08T04:00:16.417Z,19.10
2022-12-08T04:02:43.144Z,18.58
2022-12-08T04:05:09.970Z,19.15
2022-12-08T04:07:36.795Z,17.17
2022-12-08T04:10:04.439Z,18.02
2022-12-08T04:12:31.343Z,16.02
2022-12-08T04:14:57.958Z,18.02
2022-12-08T04:17:24.609Z,19.00
2022-12-08T04:19:51.265Z,18.13
2022-12-08T04:22:17.898Z,16.27
2022-12-08T04:24:44.661Z,17.45
2022-12-08T04:27:11.297Z,18.10
2022-12-08T04:29:43.788Z,17.67
2022-12-08T04:32:12.704Z,17.23
2022-12-08T04:34:39.743Z,19.40
2022-12-08T04:37:06.412Z,16.67
2022-12-08T04:39:33.045Z,18.63
2022-12-08T04:41:59.665Z,17.85
2022-12-08T04:44:28.755Z,19.30
2022-12-08T04:46:55.498Z,17.38
2022-12-08T04:49:22.258Z,18.45
2022-12-08T04:51:51.282Z,18.52
2022-12-08T04:54:17.949Z,18.98
2022-12-08T04:56:44.605Z,17.25
2022-12-08T04:59:11.120Z,17.48
2022-12-08T05:01:37.942Z,18.13
2022-12-08T05:04:04.886Z,17.33
2022-12-08T05:06:31.656Z,18.85
2022-12-08T05:08:58.396Z,18.67
2022-12-08T05:11:25.131Z,17.42
2022-12-08T05:14:02.245Z,17.08
2022-12-08T05:16:29.219Z,17.95
2022-12-08T05:18:55.891Z,17.45
2022-12-08T05:21:22.715Z,16.50
2022-12-08T05:23:49.344Z,17.95
2022-12-08T05:26:15.990Z,19.02
2022-12-08T05:28:43.577Z,18.55
2022-12-08T05:31:14.631Z,18.80
2022-12-08T05:36:10.258Z,18.95
2022-12-08T05:38:37.678Z,18.42
2022-12-08T05:41:09.817Z,20.58
2022-12-08T05:43:39.704Z,19.20
2022-12-08T05:46:08.822Z,19.77
2022-12-08T05:48:46.561Z,19.80
2022-12-08T05:51:24.707Z,19.75
2022-12-08T05:53:53.505Z,19.17
2022-12-08T05:56:27.228Z,19.73
2022-12-08T05:59:01.934Z,20.50
2022-12-08T06:01:37.217Z,20.88
2022-12-08T06:04:04.775Z,19.80
2022-12-08T06:06:34.665Z,21.70
2022-12-08T06:09:07.671Z,17.30
2022-12-08T06:11:34.559Z,18.65
2022-12-08T06:14:01.978Z,19.08
2022-12-08T06:16:29.503Z,18.83
2022-12-08T06:18:57.367Z,18.35
2022-12-08T06:21:24.421Z,19.73
2022-12-08T06:23:53.955Z,18.60
2022-12-08T06:26:21.506Z,19.02
2022-12-08T06:28:59.929Z,19.30
2022-12-08T06:31:34.978Z,18.92
2022-12-08T06:34:01.719Z,17.95
2022-12-08T06:36:28.790Z,17.77
2022-12-08T06:38:56.586Z,20.55
2022-12-08T06:41:23.363Z,18.33
2022-12-08T06:43:50.472Z,18.55
2022-12-08T06:46:21.502Z,19.17
2022-12-08T06:48:51.017Z,18.52
2022-12-08T06:51:23.593Z,18.92
2022-12-08T06:53:50.633Z,18.55
2022-12-08T06:56:20.117Z,19.05
2022-12-08T06:58:52.431Z,19.92
2022-12-08T07:01:20.254Z,19.35
2022-12-08T07:03:50.830Z,18.40
2022-12-08T07:06:23.509Z,20.23
2022-12-08T07:08:50.468Z,19.15
2022-12-08T07:11:21.480Z,19.00
2022-12-08T07:13:49.403Z,18.55
2022-12-08T07:16:17.283Z,17.98
2022-12-08T07:18:44.454Z,19.38
2022-12-08T07:21:13.463Z,17.65
2022-12-08T07:23:40.781Z,19.10
2022-12-08T07:26:44.195Z,20.70
2022-12-08T07:29:13.798Z,18.63
2022-12-08T07:31:40.560Z,20.02
2022-12-08T07:34:07.533Z,18.65
2022-12-08T07:36:34.597Z,18.83
2022-12-08T07:39:01.438Z,19.00
2022-12-08T07:41:28.665Z,18.45
2022-12-08T07:43:58.339Z,19.38
2022-12-08T07:46:26.804Z,19.88
2022-12-08T07:48:54.690Z,19.65
2022-12-08T07:51:21.582Z,20.50
2022-12-08T07:53:54.693Z,17.63
2022-12-08T07:56:22.486Z,18.27
2022-12-08T07:58:49.316Z,18.08
2022-12-08T08:01:31.268Z,18.80
2022-12-08T08:04:02.733Z,17.85
2022-12-08T08:06:33.740Z,19.23
2022-12-08T08:11:27.555Z,17.63
2022-12-08T08:13:54.254Z,18.02
2022-12-08T08:16:21.786Z,18.02
2022-12-08T08:18:50.218Z,18.80
2022-12-08T08:24:05.641Z,18.83
2022-12-08T08:26:32.599Z,17.10
2022-12-08T08:29:01.377Z,17.63
2022-12-08T08:31:29.743Z,17.45
2022-12-08T08:34:16.491Z,17.15
2022-12-08T08:36:54.871Z,16.13
2022-12-08T08:39:21.716Z,16.67
2022-12-08T08:41:48.754Z,17.05
2022-12-08T08:44:18.493Z,17.55
2022-12-08T08:46:45.453Z,17.58
2022-12-08T08:49:12.469Z,18.00
2022-12-08T08:51:40.131Z,18.10
2022-12-08T08:54:06.904Z,16.42
2022-12-08T08:56:36.578Z,18.05
2022-12-08T08:59:06.943Z,17.27
2022-12-08T09:01:34.391Z,24.77
2022-12-08T09:04:01.673Z,16.23
2022-12-08T09:06:30.648Z,19.85
2022-12-08T09:08:57.498Z,19.20
2022-12-08T09:11:24.212Z,16.73
2022-12-08T09:13:52.523Z,16.25
2022-12-08T09:16:20.037Z,16.13
2022-12-08T09:18:49.338Z,17.00
2022-12-08T09:21:22.603Z,16.30
2022-12-08T09:23:51.205Z,17.90
2022-12-08T09:26:18.276Z,16.38
2022-12-08T09:28:47.764Z,14.80
2022-12-08T09:31:14.905Z,16.70
2022-12-08T09:33:42.317Z,16.33
2022-12-08T09:36:11.270Z,15.90
2022-12-08T09:38:39.101Z,19.52
2022-12-08T09:41:44.853Z,16.23
2022-12-08T09:44:38.926Z,15.35
2022-12-08T09:49:45.289Z,16.02
2022-12-08T09:52:23.553Z,15.05
2022-12-08T09:54:50.712Z,14.05
2022-12-08T09:57:20.556Z,13.90
2022-12-08T09:59:56.198Z,14.50
2022-12-08T10:02:25.831Z,15.15
2022-12-08T10:04:55.862Z,15.23
2022-12-08T10:07:22.494Z,14.73
2022-12-08T10:10:32.864Z,13.45
2022-12-08T10:13:21.812Z,12.60
2022-12-08T10:16:28.000Z,12.98
2022-12-08T10:19:07.903Z,14.70
2022-12-08T10:21:34.620Z,12.57
2022-12-08T10:24:13.538Z,13.02
2022-12-08T10:26:40.551Z,14.00
2022-12-08T10:29:13.207Z,14.10
2022-12-08T10:31:40.332Z,19.52
2022-12-08T10:34:26.165Z,12.35
2022-12-08T10:36:58.666Z,11.88
2022-12-08T10:39:32.559Z,12.38
2022-12-08T10:42:14.441Z,12.02
2022-12-08T10:45:15.938Z,11.80
2022-12-08T10:47:45.317Z,11.75
2022-12-08T10:50:30.425Z,11.05
2022-12-08T10:53:13.189Z,11.35
2022-12-08T10:55:43.448Z,11.45
2022-12-08T10:58:40.821Z,12.52
2022-12-08T11:01:47.217Z,10.85
2022-12-08T11:04:39.451Z,11.80
2022-12-08T11:07:08.722Z,10.75
2022-12-08T11:09:48.142Z,10.50
2022-12-08T11:12:16.841Z,12.27
2022-12-08T11:14:46.004Z,10.90
2022-12-08T11:17:36.088Z,11.60
2022-12-08T11:20:08.926Z,11.50
2022-12-08T11:22:41.527Z,10.40
2022-12-08T11:25:18.059Z,10.52
2022-12-08T11:27:48.464Z,10.82
2022-12-08T11:31:22.168Z,9.98
2022-12-08T11:33:55.470Z,10.88
2022-12-08T11:36:29.323Z,11.27
2022-12-08T11:39:00.009Z,9.30
2022-12-08T11:41:32.162Z,11.48
2022-12-08T11:44:05.057Z,10.77
2022-12-08T11:46:34.112Z,10.85
2022-12-08T11:49:13.524Z,12.13
2022-12-08T11:51:46.278Z,10.43
2022-12-08T11:54:40.566Z,11.00
2022-12-08T11:57:20.803Z,11.38
2022-12-08T11:59:54.509Z,11.23
2022-12-08T12:02:28.792Z,10.90
2022-12-08T12:08:37.508Z,10.85
2022-12-08T12:11:59.822Z,10.73
2022-12-08T12:14:46.945Z,11.98
2022-12-08T12:17:41.702Z,11.23
2022-12-08T12:20:32.243Z,10.35
2022-12-08T12:23:10.213Z,10.48
2022-12-08T12:25:37.723Z,10.63
2022-12-08T12:28:08.716Z,11.45
2022-12-08T12:30:59.239Z,11.32
2022-12-08T12:33:26.479Z,11.18
2022-12-08T12:35:57.622Z,10.45
2022-12-08T12:38:54.698Z,10.55
2022-12-08T12:41:43.503Z,11.63
2022-12-08T12:44:13.267Z,10.73
2022-12-08T12:46:45.999Z,11.07
2022-12-08T12:49:42.344Z,10.45
2022-12-08T12:52:15.200Z,11.13
2022-12-08T12:54:43.492Z,10.30
2022-12-08T12:57:13.120Z,11.02
2022-12-08T13:00:03.213Z,10.85
2022-12-08T13:02:49.297Z,11.33
2022-12-08T13:05:28.745Z,11.80
2022-12-08T13:07:57.947Z,12.23
2022-12-08T13:10:34.382Z,10.98
2022-12-08T13:13:21.483Z,10.15
2022-12-08T13:16:05.528Z,10.93
2022-12-08T13:18:51.958Z,10.75
2022-12-08T13:21:23.837Z,10.57
2022-12-08T13:24:10.565Z,11.15
2022-12-08T13:27:03.638Z,9.65
2022-12-08T13:29:35.244Z,9.55
2022-12-08T13:32:09.876Z,9.90
2022-12-08T13:34:51.961Z,9.63
2022-12-08T13:37:50.764Z,9.95
2022-12-08T13:40:30.373Z,8.90
2022-12-08T13:43:13.007Z,8.07
2022-12-08T13:55:53.672Z,10.07
2022-12-08T13:57:39.514Z,9.90
2022-12-08T14:00:15.387Z,9.45
2022-12-08T14:02:48.159Z,9.25
2022-12-08T14:05:34.578Z,10.88
2022-12-08T14:08:30.108Z,10.93
2022-12-08T14:11:08.153Z,10.30
2022-12-08T14:13:35.145Z,10.65
2022-12-08T14:16:02.388Z,10.48
2022-12-08T14:18:31.619Z,11.38
2022-12-08T14:21:20.775Z,9.98
2022-12-08T14:23:47.815Z,9.93
2022-12-08T14:26:14.662Z,9.63
2022-12-08T14:28:45.296Z,8.57
2022-12-08T14:31:14.436Z,9.35
2022-12-08T14:33:41.440Z,8.90
2022-12-08T14:36:09.935Z,9.20
2022-12-08T14:38:36.769Z,9.05
2022-12-08T14:41:04.996Z,8.75
2022-12-08T14:43:35.197Z,9.27
2022-12-08T14:46:07.152Z,7.47
2022-12-08T14:48:42.360Z,8.40
2022-12-08T14:51:15.679Z,7.70
2022-12-08T14:53:52.362Z,8.63
2022-12-08T14:56:39.134Z,7.60
2022-12-08T14:59:22.773Z,8.60
2022-12-08T15:01:53.463Z,8.63
2022-12-08T15:07:13.906Z,8.33
2022-12-08T15:09:43.531Z,8.13
2022-12-08T15:12:15.108Z,8.63
2022-12-08T15:14:54.561Z,9.27
2022-12-08T15:17:34.635Z,7.78
2022-12-08T15:20:04.241Z,8.63
2022-12-08T15:22:31.677Z,8.60
2022-12-08T15:25:01.609Z,7.82
2022-12-08T15:27:28.332Z,9.40
2022-12-08T15:29:54.953Z,9.25
2022-12-08T15:32:23.434Z,9.07
2022-12-08T15:34:52.883Z,9.32
2022-12-08T15:37:22.501Z,9.32
2022-12-08T15:39:50.048Z,9.07
2022-12-08T15:42:21.670Z,9.23
2022-12-08T15:44:53.966Z,9.27
2022-12-08T15:47:27.635Z,9.40
2022-12-08T15:49:54.357Z,8.88
2022-12-08T15:52:24.050Z,9.15
2022-12-08T15:54:51.345Z,9.98
2022-12-08T15:57:53.420Z,9.77
2022-12-08T16:00:50.507Z,9.35
2022-12-08T16:03:59.892Z,8.90
2022-12-08T16:09:12.236Z,8.88
2022-12-08T16:12:07.588Z,9.63
2022-12-08T16:17:21.699Z,9.85
2022-12-08T16:19:48.636Z,10.48
2022-12-08T16:25:22.387Z,10.53
2022-12-08T16:30:43.192Z,10.55
2022-12-08T16:33:18.955Z,10.55
2022-12-08T16:35:45.850Z,11.38
2022-12-08T16:38:17.787Z,11.00
2022-12-08T16:41:06.870Z,10.20
2022-12-08T16:43:34.359Z,10.85
2022-12-08T16:46:02.746Z,11.02
2022-12-08T16:48:30.608Z,11.45
2022-12-08T16:51:01.838Z,11.75
2022-12-08T16:53:28.799Z,11.75
2022-12-08T16:55:58.570Z,10.88
2022-12-08T16:58:25.314Z,11.45
2022-12-08T17:01:01.419Z,11.45
2022-12-08T17:03:32.812Z,11.55
2022-12-08T17:06:06.828Z,11.18
2022-12-08T17:08:41.863Z,11.43
2022-12-08T17:11:27.976Z,11.63
2022-12-08T17:14:00.434Z,10.50
2022-12-08T17:16:27.359Z,12.45
2022-12-08T17:19:34.693Z,11.55
2022-12-08T17:23:37.388Z,12.10
2022-12-08T17:27:14.714Z,12.40
2022-12-08T17:30:50.697Z,11.35
2022-12-08T17:33:58.438Z,10.80
2022-12-08T17:36:57.218Z,11.85
2022-12-08T17:39:46.921Z,11.75
2022-12-08T17:50:15.984Z,10.93
2022-12-08T17:53:02.415Z,11.68
2022-12-08T17:55:42.843Z,10.77
2022-12-08T17:58:51.344Z,12.60
2022-12-08T18:01:49.452Z,11.15
2022-12-08T18:04:49.227Z,11.38
2022-12-08T18:07:25.252Z,10.57
2022-12-08T18:10:19.129Z,10.80
2022-12-08T18:12:54.130Z,12.07
2022-12-08T18:19:20.099Z,10.45
2022-12-08T18:26:52.599Z,11.35
2022-12-08T18:29:34.849Z,10.90
2022-12-08T18:33:16.243Z,11.13
2022-12-08T18:40:14.708Z,10.57
2022-12-08T18:46:34.628Z,10.43
2022-12-08T18:49:04.750Z,11.98
2022-12-08T18:51:49.341Z,10.85
2022-12-08T18:54:58.169Z,10.50
2022-12-08T18:58:16.836Z,11.18
2022-12-08T19:04:39.780Z,11.43
2022-12-08T19:07:20.004Z,11.32
2022-12-08T19:09:53.360Z,12.07
2022-12-08T19:12:40.242Z,12.55
2022-12-08T19:15:30.793Z,11.80
2022-12-08T19:18:11.400Z,13.50
2022-12-08T19:20:48.625Z,11.35
2022-12-08T19:23:33.076Z,13.63
2022-12-08T19:26:05.435Z,14.45
2022-12-08T19:28:42.183Z,14.25
2022-12-08T19:31:27.465Z,12.90
2022-12-08T19:34:01.662Z,16.10
2022-12-08T19:36:45.890Z,18.55
2022-12-08T19:39:40.634Z,16.67
2022-12-08T19:42:40.684Z,15.45
2022-12-08T19:45:30.583Z,15.43
2022-12-08T19:48:06.822Z,15.52
2022-12-08T19:50:41.696Z,15.77
2022-12-08T19:53:52.679Z,15.77
2022-12-08T19:56:22.718Z,15.20
2022-12-08T19:59:10.420Z,16.60
2022-12-08T20:01:44.090Z,16.13
2022-12-08T20:04:36.293Z,15.68
2022-12-08T20:07:26.128Z,14.75
2022-12-08T20:10:57.438Z,15.88
2022-12-08T20:14:48.254Z,14.98
2022-12-08T20:21:25.458Z,15.75
2022-12-08T20:25:00.797Z,15.63
2022-12-08T20:28:09.826Z,16.02
2022-12-08T20:30:44.207Z,15.10
2022-12-08T20:33:21.115Z,14.02
2022-12-08T20:36:25.929Z,14.27
2022-12-08T20:38:54.443Z,13.98
2022-12-08T20:41:26.696Z,15.77
2022-12-08T20:43:54.138Z,16.85
2022-12-08T20:46:21.373Z,15.38
2022-12-08T20:48:48.424Z,17.52
2022-12-08T20:51:19.747Z,15.45
2022-12-08T20:56:48.516Z,16.35
2022-12-08T20:59:18.237Z,15.75
2022-12-08T21:01:54.158Z,15.90
2022-12-08T21:04:24.187Z,14.05
2022-12-08T21:06:51.010Z,14.40
2022-12-08T21:09:18.772Z,14.20
2022-12-08T21:11:45.709Z,13.27
2022-12-08T21:14:12.570Z,12.43
2022-12-08T21:16:40.156Z,12.35
2022-12-08T21:19:07.549Z,12.52
2022-12-08T21:21:35.512Z,12.57
2022-12-08T21:24:03.556Z,12.65
2022-12-08T21:26:31.230Z,12.52
2022-12-08T21:29:01.439Z,12.65
2022-12-08T21:31:31.529Z,10.95
2022-12-08T21:34:03.182Z,11.63
2022-12-08T21:36:34.767Z,12.40
2022-12-08T21:39:02.827Z,11.70
2022-12-08T21:41:49.085Z,13.00
2022-12-08T21:44:20.163Z,12.77
2022-12-08T21:46:55.276Z,13.32
2022-12-08T21:49:30.582Z,12.07
2022-12-08T21:51:58.844Z,12.57
2022-12-08T21:54:25.973Z,11.07
2022-12-08T21:56:53.508Z,12.40
2022-12-08T21:59:20.836Z,12.63
2022-12-08T22:01:48.051Z,12.60
2022-12-08T22:04:27.713Z,13.30
2022-12-08T22:06:58.412Z,13.23
2022-12-08T22:09:30.566Z,12.45
2022-12-08T22:11:57.554Z,13.63
2022-12-08T22:14:27.762Z,14.27
2022-12-08T22:16:54.933Z,13.80
2022-12-08T22:19:24.483Z,13.43
2022-12-08T22:24:36.351Z,13.43
2022-12-08T22:27:06.420Z,13.45
2022-12-08T22:29:33.872Z,12.23
2022-12-08T22:32:00.897Z,13.13
2022-12-08T22:34:28.194Z,12.85
2022-12-08T22:36:57.717Z,13.77
2022-12-08T22:39:25.087Z,14.02
2022-12-08T22:41:52.597Z,12.57
2022-12-08T22:44:19.757Z,13.15
2022-12-08T22:46:46.805Z,13.40
2022-12-08T22:49:13.998Z,12.43
2022-12-08T22:51:41.233Z,12.40
2022-12-08T22:54:10.683Z,13.80
2022-12-08T22:56:38.005Z,13.70
2022-12-08T22:59:04.582Z,13.27
2022-12-08T23:01:32.832Z,13.85
2022-12-08T23:04:00.994Z,12.55
2022-12-08T23:06:29.199Z,13.95
2022-12-08T23:08:56.888Z,13.50
2022-12-08T23:11:27.688Z,13.35
2022-12-08T23:13:56.288Z,12.55
2022-12-08T23:16:23.200Z,12.48
2022-12-08T23:18:50.021Z,13.32
2022-12-08T23:21:19.035Z,14.15
2022-12-08T23:23:46.653Z,14.15
2022-12-08T23:26:26.710Z,14.43
2022-12-08T23:28:54.167Z,13.55
2022-12-08T23:31:21.526Z,14.10
2022-12-08T23:33:48.738Z,13.70
2022-12-08T23:36:19.946Z,13.57
2022-12-08T23:38:47.294Z,14.88
2022-12-08T23:41:15.516Z,15.05
2022-12-08T23:43:50.690Z,14.10
2022-12-08T23:46:19.867Z,13.73
2022-12-08T23:48:46.840Z,15.23
2022-12-08T23:51:14.056Z,15.18
2022-12-08T23:53:41.138Z,14.70
2022-12-08T23:56:10.620Z,14.10
